• Join FlightAware (Why Join?)
  • Login
  • US Flag 
12:38AM EDT


 

Airport Tracker/Info


-or-


 

Live Flight TrackerFlight Track Log ✈ GJS3618 ✈ 08-May-2013 ✈ KDEN - KGRR

Flight Track Log - Related Links

Times and Time Zones

All times are in EDT time to prevent confusion due to time zone crossing. See the GJS3618 flight status page for this flight to view local times or setup timezone preferences in your user account.

Time Position Orientation Groundspeed Altitude Reporting Facility
EDT Latitude Longitude Course Direction KTS MPH feet Rate Location/Type
08:40PM 39.8167 -104.6167 90° East 191 220 6,800  Level Denver TRACON
08:41PM 39.8167 -104.5500 90° East 224 258 8,900 1,920 Climbing Denver TRACON
08:42PM 39.8167 -104.4500 90° East 276 318 10,700 1,740 Climbing Denver TRACON
08:43PM 39.8500 -104.3667 62° Northeast 297 342 12,300 1,920 Climbing Denver TRACON
08:44PM 39.8606 -104.3314 69° East 298 343 13,100 2,040 Climbing Denver Center
08:45PM 39.8906 -104.2222 70° East 318 366 15,100 1,980 Climbing Denver Center
08:46PM 39.9264 -104.1006 69° East 333 383 17,200 1,560 Climbing Denver Center
08:47PM 39.9592 -103.9839 70° East 344 396 18,300 960 Climbing Denver Center
08:48PM 39.9947 -103.8608 69° East 360 414 19,300 960 Climbing Denver Center
08:49PM 40.0247 -103.7342 73° East 373 429 20,300 960 Climbing Denver Center
08:50PM 40.0519 -103.5772 77° East 393 452 21,400 960 Climbing Denver Center
08:51PM 40.0753 -103.4350 78° East 414 476 22,400 1,140 Climbing Denver Center
08:52PM 40.1019 -103.2675 78° East 424 488 23,800 1,260 Climbing Denver Center
08:53PM 40.1264 -103.1250 77° East 423 487 25,000 1,080 Climbing Denver Center
08:54PM 40.1483 -102.9811 79° East 423 487 26,100 1,020 Climbing Denver Center
08:55PM 40.1753 -102.8122 78° East 427 491 27,200 960 Climbing Denver Center
08:56PM 40.1983 -102.6650 78° East 432 497 28,200 960 Climbing Denver Center
08:57PM 40.2392 -102.4978 72° East 435 501 29,300 960 Climbing Denver Center
08:58PM 40.2731 -102.3531 73° East 436 502 30,200 780 Climbing Denver Center
08:59PM 40.3136 -102.1803 73° East 443 510 30,900 600 Climbing Denver Center
09:00PM 40.3497 -102.0281 73° East 456 525 31,500 720 Climbing Denver Center
09:01PM 40.3911 -101.8478 73° East 461 531 32,400 720 Climbing Denver Center
09:02PM 40.4269 -101.6919 73° East 466 536 33,100 720 Climbing Denver Center
09:03PM 40.4700 -101.5103 73° East 467 537 34,000 840 Climbing Denver Center
09:04PM 40.5042 -101.3544 74° East 466 536 34,900 480 Climbing Denver Center
09:05PM 40.5400 -101.2011 73° East 461 531 35,000  Climbing Denver Center
09:06PM 40.5789 -101.0256 74° East 450 518 35,000  Level Denver Center
09:07PM 40.6119 -100.8742 74° East 452 520 35,000  Level Denver Center
09:08PM 40.6506 -100.6978 74° East 455 524 35,000  Level Denver Center
09:09PM 40.6894 -100.5208 74° East 458 527 35,000  Level Denver Center
09:10PM 40.7228 -100.3689 74° East 456 525 35,000  Level Denver Center
09:11PM 40.7561 -100.2156 74° East 456 525 35,000  Level Denver Center
09:12PM 40.7944 -100.0358 74° East 457 526 35,000  Level Denver Center
09:14PM 40.8272 -99.8808 74° East 459 528 35,000  Level Denver Center
09:15PM 40.8606 -99.7231 74° East 456 525 35,000  Level Denver Center
09:16PM 40.8947 -99.5603 74° East 458 527 35,000  Level Denver Center
09:17PM 40.9353 -99.3664 74° East 457 526 35,000  Level Denver Center
09:18PM 40.9681 -99.2033 75° East 458 527 35,000  Level Denver Center
09:19PM 41.0042 -99.0261 75° East 461 531 35,000  Level Denver Center
09:20PM 41.0356 -98.8683 75° East 463 533 35,000  Level Denver Center
09:21PM 41.0675 -98.7089 75° East 469 540 35,000  Level Minneapolis Center
09:22PM 41.1008 -98.5439 75° East 467 537 35,000 60 Level Minneapolis Center
09:23PM 41.1381 -98.3558 75° East 467 537 35,200 480 Climbing Minneapolis Center
09:24PM 41.1711 -98.1903 75° East 467 537 36,000 660 Climbing Minneapolis Center
09:25PM 41.2031 -98.0222 76° East 469 540 36,600 480 Climbing Minneapolis Center
09:26PM 41.2292 -97.8889 75° East 468 539 37,000 180 Climbing Minneapolis Center
09:27PM 41.2608 -97.7189 76° East 472 543 37,000  Level Minneapolis Center
09:28PM 41.3008 -97.5119 76° East 480 552 37,000  Level Minneapolis Center
09:29PM 41.3356 -97.3244 76° East 484 557 37,000  Level Minneapolis Center
09:30PM 41.3692 -97.1478 76° East 489 563 37,000  Level Minneapolis Center
09:31PM 41.4014 -96.9697 76° East 494 568 37,000  Level Minneapolis Center
09:32PM 41.4344 -96.7914 76° East 496 571 37,000  Level Minneapolis Center
09:33PM 41.4736 -96.5736 76° East 500 575 37,000  Level Minneapolis Center
09:34PM 41.5067 -96.3914 76° East 502 578 37,000  Level Minneapolis Center
09:35PM 41.5333 -96.2242 78° East 504 580 37,100  Climbing Minneapolis Center
09:37PM 41.5761 -95.9681 77° East 505 581 37,000 -60 Descending Minneapolis Center
09:38PM 41.6183 -95.7481 76° East 508 585 37,000  Level Minneapolis Center
09:39PM 41.6472 -95.5767 77° East 503 579 37,000  Level Minneapolis Center
09:40PM 41.6672 -95.4311 80° East 500 575 37,000  Level Minneapolis Center
09:41PM 41.6906 -95.2144 82° East 491 565 37,000  Level Minneapolis Center
09:42PM 41.7075 -95.0358 83° East 486 559 37,000  Level Minneapolis Center
09:43PM 41.7197 -94.8556 85° East 487 560 37,000  Level Minneapolis Center
09:44PM 41.7367 -94.6394 84° East 488 562 37,000  Level Minneapolis Center
09:45PM 41.7692 -94.4628 76° East 489 563 37,000  Level Minneapolis Center
09:46PM 41.8000 -94.2833 77° East 494 568 37,000  Level Minneapolis Center
09:47PM 41.8289 -94.1031 78° East 494 568 37,000  Level Minneapolis Center
09:48PM 41.8561 -93.9211 79° East 497 572 37,000  Level Minneapolis Center
09:49PM 41.8847 -93.7433 78° East 500 575 37,000  Level Minneapolis Center
09:50PM 41.9083 -93.5997 77° East 498 573 37,000  Level Minneapolis Center
09:51PM 41.9453 -93.3611 78° East 502 578 37,000  Level Minneapolis Center
09:52PM 41.9728 -93.1817 78° East 499 574 37,000  Level Minneapolis Center
09:53PM 42.0000 -93.0003 79° East 502 578 37,000  Level Minneapolis Center
09:54PM 42.0331 -92.7842 78° East 499 574 37,000  Level Minneapolis Center
09:55PM 42.0600 -92.6039 79° East 499 574 37,000  Level Minneapolis Center
09:56PM 42.0811 -92.4581 79° East 497 572 37,000  Level Chicago Center
09:57PM 42.1083 -92.2775 78° East 500 575 37,000  Level Chicago Center
09:58PM 42.1350 -92.0969 79° East 498 573 37,000  Level Chicago Center
09:59PM 42.1600 -91.9153 79° East 501 577 37,000  Level Chicago Center
10:00PM 42.1858 -91.7344 79° East 500 575 37,000  Level Chicago Center
10:01PM 42.2156 -91.5158 80° East 502 578 37,000  Level Chicago Center
10:02PM 42.2411 -91.3344 79° East 503 579 37,000  Level Chicago Center
10:03PM 42.2656 -91.1528 80° East 502 578 37,000  Level Chicago Center
10:04PM 42.2906 -90.9731 79° East 497 572 37,000  Level Chicago Center
10:05PM 42.3133 -90.7922 80° East 498 573 37,000  Level Chicago Center
10:06PM 42.3397 -90.5733 81° East 500 575 37,000  Level Chicago Center
10:07PM 42.3642 -90.3914 80° East 499 574 37,000  Level Chicago Center
10:08PM 42.3886 -90.2058 80° East 499 574 37,000  Level Chicago Center
10:09PM 42.4100 -90.0278 81° East 496 571 37,000  Level Chicago Center
10:10PM 42.4347 -89.8303 80° East 500 575 37,000  Level Chicago Center
10:11PM 42.4581 -89.6467 80° East 497 572 37,000  Level Chicago Center
10:12PM 42.4800 -89.4622 81° East 497 572 37,000  Level Chicago Center
10:13PM 42.5050 -89.2481 81° East 496 571 37,000  Level Chicago Center
10:14PM 42.5267 -89.0656 81° East 494 568 37,000  Level Chicago Center
10:15PM 42.5475 -88.8847 81° East 488 562 37,000  Level Chicago Center
10:16PM 42.5689 -88.7053 81° East 485 558 37,000 -540 Level Chicago Center
10:17PM 42.5883 -88.5253 82° East 483 556 35,900 -1,560 Descending Chicago Center
10:18PM 42.6075 -88.3483 82° East 478 550 33,900 -1,980 Descending Chicago Center
10:19PM 42.6267 -88.1689 82° East 482 555 31,900 -2,160 Descending Chicago Center
10:20PM 42.6500 -87.9553 81° East 491 565 29,500 -2,160 Descending Chicago Center
10:21PM 42.6683 -87.7797 82° East 477 549 27,500 -1,980 Descending Chicago Center
10:22PM 42.6861 -87.6081 82° East 462 532 25,500 -1,740 Descending Chicago Center
10:23PM 42.7036 -87.4350 82° East 462 532 24,000 -1,260 Descending Chicago Center
10:24PM 42.7203 -87.2683 82° East 465 535 23,000 -1,440 Descending Chicago Center
10:26PM 42.7369 -87.0986 82° East 456 525 21,100 -2,160 Descending Chicago Center
10:27PM 42.7539 -86.9344 82° East 444 511 18,600 -2,520 Descending Chicago Center
10:28PM 42.7714 -86.7419 83° East 432 497 16,000 -2,040 Descending Chicago Center
10:29PM 42.7844 -86.5983 83° East 387 445 14,500 -1,500 Descending Chicago Center
10:30PM 42.7969 -86.4708 82° East 348 400 13,000 -1,560 Descending Chicago Center
10:31PM 42.8081 -86.3561 82° East 316 364 11,400 -1,620 Descending Chicago Center
10:32PM 42.8181 -86.2442 83° East 304 350 9,800 -1,620 Descending Chicago Center
10:33PM 42.8275 -86.1378 83° East 292 336 8,200 -1,620 Descending Chicago Center
10:34PM 42.8469 -86.0386 75° East 276 318 6,500 -1,560 Descending Chicago Center
10:35PM 42.8764 -85.9236 71° East 272 313 5,100 -1,140 Descending Chicago Center
10:36PM 42.8986 -85.8286 72° East 269 310 4,200 -960 Descending Chicago Center
10:37PM 42.9183 -85.7336 74° East 264 304 3,200 -840 Descending Chicago Center
10:38PM 42.9347 -85.6386 77° East 263 303 2,500 -360 Descending Chicago Center
10:39PM 42.9428 -85.5494 83° East 250 288 2,500  Level Chicago Center
10:40PM 42.9508 -85.4789 81° East 205 236 2,500  Level Chicago Center
10:41PM 42.9364 -85.4253 110° East 195 224 2,600 -300 Climbing Chicago Center
10:42PM 42.8967 -85.4297 185° South 163 188 1,900 -720 Descending Chicago Center
10:43PM 42.8831 -85.4875 252° West 148 170 1,200 -480 Descending Chicago Center
10:44PM 42.8775 -85.5381 261° West 146 168 1,000 -240 Descending Chicago Center